sensor_id;sensor_type;location;lat;lon;timestamp;P1;durP1;ratioP1;P2;durP2;ratioP2
69716;SDS011;67420;46.144;19.666;2023-07-02T00:03:00;7.13;;;5.30;;
69716;SDS011;67420;46.144;19.666;2023-07-02T00:13:03;6.90;;;5.00;;
69716;SDS011;67420;46.144;19.666;2023-07-02T00:23:05;5.13;;;4.53;;
69716;SDS011;67420;46.144;19.666;2023-07-02T00:33:09;5.93;;;4.97;;
69716;SDS011;67420;46.144;19.666;2023-07-02T00:43:11;5.88;;;4.80;;
69716;SDS011;67420;46.144;19.666;2023-07-02T00:53:14;5.10;;;4.60;;
69716;SDS011;67420;46.144;19.666;2023-07-02T01:03:16;5.80;;;4.72;;
69716;SDS011;67420;46.144;19.666;2023-07-02T01:13:19;6.53;;;4.63;;
69716;SDS011;67420;46.144;19.666;2023-07-02T01:23:23;4.93;;;4.35;;
69716;SDS011;67420;46.144;19.666;2023-07-02T01:33:25;4.63;;;4.13;;
69716;SDS011;67420;46.144;19.666;2023-07-02T01:43:27;5.47;;;4.13;;
69716;SDS011;67420;46.144;19.666;2023-07-02T01:53:29;4.15;;;3.75;;
69716;SDS011;67420;46.144;19.666;2023-07-02T02:03:31;4.18;;;3.78;;
69716;SDS011;67420;46.144;19.666;2023-07-02T02:13:33;3.88;;;3.38;;
69716;SDS011;67420;46.144;19.666;2023-07-02T02:23:35;4.55;;;3.50;;
69716;SDS011;67420;46.144;19.666;2023-07-02T02:33:38;3.58;;;3.28;;
69716;SDS011;67420;46.144;19.666;2023-07-02T02:43:43;3.80;;;3.17;;
69716;SDS011;67420;46.144;19.666;2023-07-02T02:53:45;4.38;;;3.25;;
69716;SDS011;67420;46.144;19.666;2023-07-02T03:03:47;5.00;;;3.28;;
69716;SDS011;67420;46.144;19.666;2023-07-02T03:13:50;3.65;;;3.08;;
69716;SDS011;67420;46.144;19.666;2023-07-02T03:23:52;3.45;;;3.13;;
69716;SDS011;67420;46.144;19.666;2023-07-02T03:33:54;4.13;;;3.30;;
69716;SDS011;67420;46.144;19.666;2023-07-02T03:43:56;3.25;;;2.95;;
69716;SDS011;67420;46.144;19.666;2023-07-02T03:53:59;3.53;;;3.10;;
69716;SDS011;67420;46.144;19.666;2023-07-02T04:04:00;3.97;;;3.33;;
69716;SDS011;67420;46.144;19.666;2023-07-02T04:14:03;3.75;;;3.22;;
69716;SDS011;67420;46.144;19.666;2023-07-02T04:24:05;3.47;;;2.88;;
69716;SDS011;67420;46.144;19.666;2023-07-02T04:34:07;3.03;;;2.72;;
69716;SDS011;67420;46.144;19.666;2023-07-02T04:44:09;3.75;;;2.70;;
69716;SDS011;67420;46.144;19.666;2023-07-02T04:54:12;3.22;;;2.92;;
69716;SDS011;67420;46.144;19.666;2023-07-02T05:04:14;4.18;;;3.35;;
69716;SDS011;67420;46.144;19.666;2023-07-02T05:14:17;3.67;;;3.28;;
69716;SDS011;67420;46.144;19.666;2023-07-02T05:24:19;3.75;;;3.42;;
69716;SDS011;67420;46.144;19.666;2023-07-02T05:34:21;3.97;;;3.58;;
69716;SDS011;67420;46.144;19.666;2023-07-02T05:44:23;5.03;;;3.40;;
69716;SDS011;67420;46.144;19.666;2023-07-02T05:54:25;6.03;;;3.80;;
69716;SDS011;67420;46.144;19.666;2023-07-02T06:04:27;4.53;;;3.63;;
69716;SDS011;67420;46.144;19.666;2023-07-02T06:14:28;4.40;;;4.00;;
69716;SDS011;67420;46.144;19.666;2023-07-02T06:24:30;4.20;;;3.80;;
69716;SDS011;67420;46.144;19.666;2023-07-02T06:34:32;4.55;;;3.72;;
69716;SDS011;67420;46.144;19.666;2023-07-02T06:44:34;4.90;;;3.88;;
69716;SDS011;67420;46.144;19.666;2023-07-02T06:54:37;4.82;;;3.83;;
69716;SDS011;67420;46.144;19.666;2023-07-02T07:04:38;5.07;;;4.03;;
69716;SDS011;67420;46.144;19.666;2023-07-02T07:14:41;5.57;;;4.05;;
69716;SDS011;67420;46.144;19.666;2023-07-02T07:24:43;4.30;;;3.80;;
69716;SDS011;67420;46.144;19.666;2023-07-02T07:34:45;4.90;;;4.13;;
69716;SDS011;67420;46.144;19.666;2023-07-02T07:44:46;4.53;;;3.75;;
69716;SDS011;67420;46.144;19.666;2023-07-02T07:54:48;4.63;;;3.70;;
69716;SDS011;67420;46.144;19.666;2023-07-02T08:04:50;4.22;;;3.80;;
69716;SDS011;67420;46.144;19.666;2023-07-02T08:14:53;4.82;;;3.97;;
69716;SDS011;67420;46.144;19.666;2023-07-02T08:24:55;4.47;;;3.50;;
69716;SDS011;67420;46.144;19.666;2023-07-02T08:34:57;4.13;;;3.50;;
69716;SDS011;67420;46.144;19.666;2023-07-02T08:44:59;4.38;;;3.80;;
69716;SDS011;67420;46.144;19.666;2023-07-02T08:55:02;4.55;;;3.67;;
69716;SDS011;67420;46.144;19.666;2023-07-02T09:05:04;4.50;;;3.50;;
69716;SDS011;67420;46.144;19.666;2023-07-02T09:15:07;5.63;;;4.07;;
69716;SDS011;67420;46.144;19.666;2023-07-02T09:25:09;4.68;;;3.78;;
69716;SDS011;67420;46.144;19.666;2023-07-02T09:35:13;6.07;;;3.78;;
69716;SDS011;67420;46.144;19.666;2023-07-02T09:45:16;4.50;;;3.80;;
69716;SDS011;67420;46.144;19.666;2023-07-02T09:55:18;5.45;;;3.90;;
69716;SDS011;67420;46.144;19.666;2023-07-02T10:05:25;5.85;;;4.10;;
69716;SDS011;67420;46.144;19.666;2023-07-02T10:25:36;7.82;;;4.30;;
69716;SDS011;67420;46.144;19.666;2023-07-02T10:35:41;5.32;;;3.85;;
69716;SDS011;67420;46.144;19.666;2023-07-02T10:45:47;5.00;;;3.42;;
69716;SDS011;67420;46.144;19.666;2023-07-02T10:55:55;5.63;;;3.60;;
69716;SDS011;67420;46.144;19.666;2023-07-02T11:05:59;3.90;;;3.47;;
69716;SDS011;67420;46.144;19.666;2023-07-02T11:16:01;7.05;;;3.58;;
69716;SDS011;67420;46.144;19.666;2023-07-02T11:26:03;3.53;;;3.22;;
69716;SDS011;67420;46.144;19.666;2023-07-02T11:36:06;5.18;;;3.50;;
69716;SDS011;67420;46.144;19.666;2023-07-02T11:46:09;4.05;;;3.63;;
69716;SDS011;67420;46.144;19.666;2023-07-02T11:56:11;5.85;;;4.25;;
69716;SDS011;67420;46.144;19.666;2023-07-02T12:06:14;5.15;;;3.90;;
69716;SDS011;67420;46.144;19.666;2023-07-02T12:16:16;5.07;;;4.30;;
69716;SDS011;67420;46.144;19.666;2023-07-02T12:26:18;5.75;;;3.90;;
69716;SDS011;67420;46.144;19.666;2023-07-02T12:36:20;4.85;;;3.83;;
69716;SDS011;67420;46.144;19.666;2023-07-02T12:46:22;4.15;;;3.33;;
69716;SDS011;67420;46.144;19.666;2023-07-02T12:56:25;4.45;;;3.60;;
69716;SDS011;67420;46.144;19.666;2023-07-02T13:06:26;3.60;;;3.00;;
69716;SDS011;67420;46.144;19.666;2023-07-02T13:16:30;4.10;;;3.53;;
69716;SDS011;67420;46.144;19.666;2023-07-02T13:26:31;3.75;;;3.22;;
69716;SDS011;67420;46.144;19.666;2023-07-02T13:36:33;4.32;;;3.55;;
69716;SDS011;67420;46.144;19.666;2023-07-02T13:46:35;5.55;;;3.80;;
69716;SDS011;67420;46.144;19.666;2023-07-02T13:56:37;4.38;;;3.17;;
69716;SDS011;67420;46.144;19.666;2023-07-02T14:06:39;6.90;;;3.75;;
69716;SDS011;67420;46.144;19.666;2023-07-02T14:16:41;6.30;;;3.88;;
69716;SDS011;67420;46.144;19.666;2023-07-02T14:26:45;5.93;;;3.42;;
69716;SDS011;67420;46.144;19.666;2023-07-02T14:36:47;5.20;;;3.20;;
69716;SDS011;67420;46.144;19.666;2023-07-02T14:46:49;5.00;;;3.50;;
69716;SDS011;67420;46.144;19.666;2023-07-02T14:56:51;7.78;;;3.63;;
69716;SDS011;67420;46.144;19.666;2023-07-02T15:06:53;4.47;;;3.53;;
69716;SDS011;67420;46.144;19.666;2023-07-02T15:16:55;5.07;;;3.40;;
69716;SDS011;67420;46.144;19.666;2023-07-02T15:26:57;7.07;;;3.83;;
69716;SDS011;67420;46.144;19.666;2023-07-02T15:36:59;4.80;;;3.53;;
69716;SDS011;67420;46.144;19.666;2023-07-02T15:47:01;6.00;;;3.75;;
69716;SDS011;67420;46.144;19.666;2023-07-02T15:57:05;8.52;;;3.80;;
69716;SDS011;67420;46.144;19.666;2023-07-02T16:07:07;5.05;;;3.75;;
69716;SDS011;67420;46.144;19.666;2023-07-02T16:17:10;4.50;;;3.40;;
69716;SDS011;67420;46.144;19.666;2023-07-02T16:27:13;5.40;;;3.28;;
69716;SDS011;67420;46.144;19.666;2023-07-02T16:37:15;5.03;;;3.63;;
69716;SDS011;67420;46.144;19.666;2023-07-02T16:47:17;4.18;;;3.58;;
69716;SDS011;67420;46.144;19.666;2023-07-02T16:57:19;6.13;;;3.58;;
69716;SDS011;67420;46.144;19.666;2023-07-02T17:07:22;4.13;;;3.40;;
69716;SDS011;67420;46.144;19.666;2023-07-02T17:17:25;4.35;;;3.08;;
69716;SDS011;67420;46.144;19.666;2023-07-02T17:27:30;3.53;;;3.08;;
69716;SDS011;67420;46.144;19.666;2023-07-02T17:37:33;4.82;;;3.50;;
69716;SDS011;67420;46.144;19.666;2023-07-02T17:47:37;4.72;;;3.35;;
69716;SDS011;67420;46.144;19.666;2023-07-02T17:57:39;5.55;;;3.72;;
69716;SDS011;67420;46.144;19.666;2023-07-02T18:07:41;4.82;;;3.65;;
69716;SDS011;67420;46.144;19.666;2023-07-02T18:17:43;4.20;;;3.40;;
69716;SDS011;67420;46.144;19.666;2023-07-02T18:28:00;5.00;;;3.50;;
69716;SDS011;67420;46.144;19.666;2023-07-02T18:38:14;5.25;;;3.28;;
69716;SDS011;67420;46.144;19.666;2023-07-02T18:48:16;5.45;;;3.30;;
69716;SDS011;67420;46.144;19.666;2023-07-02T18:58:19;8.30;;;3.80;;
69716;SDS011;67420;46.144;19.666;2023-07-02T19:08:20;8.95;;;3.80;;
69716;SDS011;67420;46.144;19.666;2023-07-02T19:18:23;14.93;;;4.18;;
69716;SDS011;67420;46.144;19.666;2023-07-02T19:28:25;12.15;;;4.15;;
69716;SDS011;67420;46.144;19.666;2023-07-02T19:38:27;9.65;;;3.85;;
69716;SDS011;67420;46.144;19.666;2023-07-02T19:48:31;14.07;;;4.45;;
69716;SDS011;67420;46.144;19.666;2023-07-02T19:58:34;6.30;;;3.42;;
69716;SDS011;67420;46.144;19.666;2023-07-02T20:08:36;5.50;;;2.92;;
69716;SDS011;67420;46.144;19.666;2023-07-02T20:18:38;8.77;;;3.28;;
69716;SDS011;67420;46.144;19.666;2023-07-02T20:28:40;5.82;;;3.20;;
69716;SDS011;67420;46.144;19.666;2023-07-02T20:38:42;7.40;;;2.90;;
69716;SDS011;67420;46.144;19.666;2023-07-02T20:48:44;9.82;;;2.70;;
69716;SDS011;67420;46.144;19.666;2023-07-02T20:58:46;2.53;;;1.88;;
69716;SDS011;67420;46.144;19.666;2023-07-02T21:08:48;3.55;;;2.10;;
69716;SDS011;67420;46.144;19.666;2023-07-02T21:18:50;3.92;;;2.35;;
69716;SDS011;67420;46.144;19.666;2023-07-02T21:28:52;2.72;;;2.05;;
69716;SDS011;67420;46.144;19.666;2023-07-02T21:38:54;2.97;;;1.88;;
69716;SDS011;67420;46.144;19.666;2023-07-02T21:48:57;6.22;;;2.20;;
69716;SDS011;67420;46.144;19.666;2023-07-02T21:58:59;4.20;;;2.20;;
69716;SDS011;67420;46.144;19.666;2023-07-02T22:09:00;2.40;;;1.77;;
69716;SDS011;67420;46.144;19.666;2023-07-02T22:19:06;2.08;;;1.45;;
69716;SDS011;67420;46.144;19.666;2023-07-02T22:29:09;2.78;;;1.95;;
69716;SDS011;67420;46.144;19.666;2023-07-02T22:39:11;2.85;;;2.00;;
69716;SDS011;67420;46.144;19.666;2023-07-02T22:49:13;1.92;;;1.60;;
69716;SDS011;67420;46.144;19.666;2023-07-02T22:59:15;1.58;;;1.48;;
69716;SDS011;67420;46.144;19.666;2023-07-02T23:09:17;2.35;;;1.58;;
69716;SDS011;67420;46.144;19.666;2023-07-02T23:19:23;2.78;;;1.42;;
69716;SDS011;67420;46.144;19.666;2023-07-02T23:29:25;2.38;;;1.60;;
69716;SDS011;67420;46.144;19.666;2023-07-02T23:39:28;2.33;;;1.48;;
69716;SDS011;67420;46.144;19.666;2023-07-02T23:49:30;3.15;;;1.52;;
69716;SDS011;67420;46.144;19.666;2023-07-02T23:59:32;2.00;;;1.27;;
